sensor_id;sensor_type;location;lat;lon;timestamp;pressure;altitude;pressure_sealevel;temperature;humidity
5126;BME280;63008;53.112;8.896;2024-02-16T00:00:42;59290.81;;;-140.20;100.00
5126;BME280;63008;53.112;8.896;2024-02-16T00:02:45;59267.81;;;-140.20;100.00
5126;BME280;63008;53.112;8.896;2024-02-16T00:04:46;59269.88;;;-140.20;100.00
5126;BME280;63008;53.112;8.896;2024-02-16T00:06:47;59240.63;;;-140.20;100.00
5126;BME280;63008;53.112;8.896;2024-02-16T00:08:49;59292.88;;;-140.20;100.00
5126;BME280;63008;53.112;8.896;2024-02-16T00:10:50;59274.06;;;-140.20;100.00
5126;BME280;63008;53.112;8.896;2024-02-16T00:12:51;59303.34;;;-140.20;100.00
5126;BME280;63008;53.112;8.896;2024-02-16T00:14:52;59305.44;;;-140.20;100.00
5126;BME280;63008;53.112;8.896;2024-02-16T00:16:53;59265.72;;;-140.20;100.00
5126;BME280;63008;53.112;8.896;2024-02-16T00:18:54;59305.44;;;-140.20;100.00
5126;BME280;63008;53.112;8.896;2024-02-16T00:20:55;59284.53;;;-140.20;100.00
5126;BME280;63008;53.112;8.896;2024-02-16T00:22:57;59309.63;;;-140.20;100.00
5126;BME280;63008;53.112;8.896;2024-02-16T00:24:58;59284.53;;;-140.20;100.00
5126;BME280;63008;53.112;8.896;2024-02-16T00:26:59;59305.44;;;-140.20;100.00
5126;BME280;63008;53.112;8.896;2024-02-16T00:29:00;59259.44;;;-140.20;100.00
5126;BME280;63008;53.112;8.896;2024-02-16T00:31:01;59301.25;;;-140.20;100.00
5126;BME280;63008;53.112;8.896;2024-02-16T00:33:02;59274.06;;;-140.20;100.00
5126;BME280;63008;53.112;8.896;2024-02-16T00:35:04;59297.06;;;-140.20;100.00
5126;BME280;63008;53.112;8.896;2024-02-16T00:37:05;59288.72;;;-140.20;100.00
5126;BME280;63008;53.112;8.896;2024-02-16T00:39:10;59282.44;;;-140.20;100.00
5126;BME280;63008;53.112;8.896;2024-02-16T00:41:18;59274.06;;;-140.20;100.00
5126;BME280;63008;53.112;8.896;2024-02-16T00:43:19;59221.81;;;-140.20;100.00
5126;BME280;63008;53.112;8.896;2024-02-16T00:45:20;59253.16;;;-140.20;100.00
5126;BME280;63008;53.112;8.896;2024-02-16T00:47:21;59282.44;;;-140.20;100.00
5126;BME280;63008;53.112;8.896;2024-02-16T00:49:24;59263.63;;;-140.20;100.00
5126;BME280;63008;53.112;8.896;2024-02-16T00:51:25;59261.53;;;-140.20;100.00
5126;BME280;63008;53.112;8.896;2024-02-16T00:53:26;59267.81;;;-140.20;100.00
5126;BME280;63008;53.112;8.896;2024-02-16T00:55:27;59259.44;;;-140.20;100.00
5126;BME280;63008;53.112;8.896;2024-02-16T00:57:28;59336.81;;;-140.20;100.00
5126;BME280;63008;53.112;8.896;2024-02-16T00:59:29;59263.63;;;-140.20;100.00
5126;BME280;63008;53.112;8.896;2024-02-16T01:01:30;59255.25;;;-140.20;100.00
5126;BME280;63008;53.112;8.896;2024-02-16T01:03:31;59303.34;;;-140.20;100.00
5126;BME280;63008;53.112;8.896;2024-02-16T01:05:32;59276.16;;;-140.20;100.00
5126;BME280;63008;53.112;8.896;2024-02-16T01:07:33;59223.88;;;-140.20;100.00
5126;BME280;63008;53.112;8.896;2024-02-16T01:09:34;59301.25;;;-140.20;100.00
5126;BME280;63008;53.112;8.896;2024-02-16T01:11:35;59257.34;;;-140.20;100.00
5126;BME280;63008;53.112;8.896;2024-02-16T01:13:36;59255.25;;;-140.20;100.00
5126;BME280;63008;53.112;8.896;2024-02-16T01:15:37;59255.25;;;-140.20;100.00
5126;BME280;63008;53.112;8.896;2024-02-16T01:17:38;59297.06;;;-140.20;100.00
5126;BME280;63008;53.112;8.896;2024-02-16T01:19:39;59311.72;;;-140.20;100.00
5126;BME280;63008;53.112;8.896;2024-02-16T01:21:41;59257.34;;;-140.20;100.00
5126;BME280;63008;53.112;8.896;2024-02-16T01:23:42;59276.16;;;-140.20;100.00
5126;BME280;63008;53.112;8.896;2024-02-16T01:25:43;59276.16;;;-140.20;100.00
5126;BME280;63008;53.112;8.896;2024-02-16T01:27:44;59276.16;;;-140.20;100.00
5126;BME280;63008;53.112;8.896;2024-02-16T01:29:44;59261.53;;;-140.20;100.00
5126;BME280;63008;53.112;8.896;2024-02-16T01:31:45;59294.97;;;-140.20;100.00
5126;BME280;63008;53.112;8.896;2024-02-16T01:33:46;59242.72;;;-140.20;100.00
5126;BME280;63008;53.112;8.896;2024-02-16T01:35:47;59248.97;;;-140.20;100.00
5126;BME280;63008;53.112;8.896;2024-02-16T01:37:48;59282.44;;;-140.20;100.00
5126;BME280;63008;53.112;8.896;2024-02-16T01:39:49;59313.81;;;-140.20;100.00
5126;BME280;63008;53.112;8.896;2024-02-16T01:41:50;59288.72;;;-140.20;100.00
5126;BME280;63008;53.112;8.896;2024-02-16T01:43:52;59269.88;;;-140.20;100.00
5126;BME280;63008;53.112;8.896;2024-02-16T01:45:54;59280.34;;;-140.20;100.00
5126;BME280;63008;53.112;8.896;2024-02-16T01:47:55;59290.81;;;-140.20;100.00
5126;BME280;63008;53.112;8.896;2024-02-16T01:49:56;59282.44;;;-140.20;100.00
5126;BME280;63008;53.112;8.896;2024-02-16T01:51:57;59317.97;;;-140.20;100.00
5126;BME280;63008;53.112;8.896;2024-02-16T01:53:58;59263.63;;;-140.20;100.00
5126;BME280;63008;53.112;8.896;2024-02-16T01:55:59;59288.72;;;-140.20;100.00
5126;BME280;63008;53.112;8.896;2024-02-16T01:58:00;59280.34;;;-140.20;100.00
5126;BME280;63008;53.112;8.896;2024-02-16T02:00:02;59299.16;;;-140.20;100.00
5126;BME280;63008;53.112;8.896;2024-02-16T02:02:04;59271.97;;;-140.20;100.00
5126;BME280;63008;53.112;8.896;2024-02-16T02:04:05;59328.44;;;-140.20;100.00
5126;BME280;63008;53.112;8.896;2024-02-16T02:06:06;59248.97;;;-140.20;100.00
5126;BME280;63008;53.112;8.896;2024-02-16T02:08:12;59278.25;;;-140.20;100.00
5126;BME280;63008;53.112;8.896;2024-02-16T02:10:13;59278.25;;;-140.20;100.00
5126;BME280;63008;53.112;8.896;2024-02-16T02:12:15;59299.16;;;-140.20;100.00
5126;BME280;63008;53.112;8.896;2024-02-16T02:14:16;59269.88;;;-140.20;100.00
5126;BME280;63008;53.112;8.896;2024-02-16T02:16:18;59263.63;;;-140.20;100.00
5126;BME280;63008;53.112;8.896;2024-02-16T02:18:20;59278.25;;;-140.20;100.00
5126;BME280;63008;53.112;8.896;2024-02-16T02:20:21;59271.97;;;-140.20;100.00
5126;BME280;63008;53.112;8.896;2024-02-16T02:22:22;59301.25;;;-140.20;100.00
5126;BME280;63008;53.112;8.896;2024-02-16T02:24:23;59288.72;;;-140.20;100.00
5126;BME280;63008;53.112;8.896;2024-02-16T02:26:24;59269.88;;;-140.20;100.00
5126;BME280;63008;53.112;8.896;2024-02-16T02:28:25;59317.97;;;-140.20;100.00
5126;BME280;63008;53.112;8.896;2024-02-16T02:30:26;59294.97;;;-140.20;100.00
5126;BME280;63008;53.112;8.896;2024-02-16T02:32:28;59305.44;;;-140.20;100.00
5126;BME280;63008;53.112;8.896;2024-02-16T02:34:29;59265.72;;;-140.20;100.00
5126;BME280;63008;53.112;8.896;2024-02-16T02:36:30;59255.25;;;-140.20;100.00
5126;BME280;63008;53.112;8.896;2024-02-16T02:38:31;59299.16;;;-140.20;100.00
5126;BME280;63008;53.112;8.896;2024-02-16T02:40:32;59261.53;;;-140.20;100.00
5126;BME280;63008;53.112;8.896;2024-02-16T02:42:33;59248.97;;;-140.20;100.00
5126;BME280;63008;53.112;8.896;2024-02-16T02:44:34;59301.25;;;-140.20;100.00
5126;BME280;63008;53.112;8.896;2024-02-16T02:46:35;59313.81;;;-140.20;100.00
5126;BME280;63008;53.112;8.896;2024-02-16T02:48:36;59251.06;;;-140.20;100.00
5126;BME280;63008;53.112;8.896;2024-02-16T02:50:37;59305.44;;;-140.20;100.00
5126;BME280;63008;53.112;8.896;2024-02-16T02:52:38;59278.25;;;-140.20;100.00
5126;BME280;63008;53.112;8.896;2024-02-16T02:54:39;59294.97;;;-140.20;100.00
5126;BME280;63008;53.112;8.896;2024-02-16T02:56:40;59278.25;;;-140.20;100.00
5126;BME280;63008;53.112;8.896;2024-02-16T02:58:41;59301.25;;;-140.20;100.00
5126;BME280;63008;53.112;8.896;2024-02-16T03:00:43;59311.72;;;-140.20;100.00
5126;BME280;63008;53.112;8.896;2024-02-16T03:02:45;59294.97;;;-140.20;100.00
5126;BME280;63008;53.112;8.896;2024-02-16T03:04:46;59257.34;;;-140.20;100.00
5126;BME280;63008;53.112;8.896;2024-02-16T03:06:47;59290.81;;;-140.20;100.00
5126;BME280;63008;53.112;8.896;2024-02-16T03:08:48;59286.63;;;-140.20;100.00
5126;BME280;63008;53.112;8.896;2024-02-16T03:10:49;59294.97;;;-140.20;100.00
5126;BME280;63008;53.112;8.896;2024-02-16T03:12:50;59282.44;;;-140.20;100.00
5126;BME280;63008;53.112;8.896;2024-02-16T03:14:51;59307.53;;;-140.20;100.00
5126;BME280;63008;53.112;8.896;2024-02-16T03:16:52;59246.88;;;-140.20;100.00
5126;BME280;63008;53.112;8.896;2024-02-16T03:18:55;59248.97;;;-140.20;100.00
5126;BME280;63008;53.112;8.896;2024-02-16T03:20:57;59265.72;;;-140.20;100.00
5126;BME280;63008;53.112;8.896;2024-02-16T03:22:57;59274.06;;;-140.20;100.00
5126;BME280;63008;53.112;8.896;2024-02-16T03:24:58;59290.81;;;-140.20;100.00
5126;BME280;63008;53.112;8.896;2024-02-16T03:27:00;59265.72;;;-140.20;100.00
5126;BME280;63008;53.112;8.896;2024-02-16T03:29:01;59255.25;;;-140.20;100.00
5126;BME280;63008;53.112;8.896;2024-02-16T03:31:02;59284.53;;;-140.20;100.00
5126;BME280;63008;53.112;8.896;2024-02-16T03:33:05;59297.06;;;-140.20;100.00
5126;BME280;63008;53.112;8.896;2024-02-16T03:35:06;59276.16;;;-140.20;100.00
5126;BME280;63008;53.112;8.896;2024-02-16T03:37:07;59271.97;;;-140.20;100.00
5126;BME280;63008;53.112;8.896;2024-02-16T03:39:10;59248.97;;;-140.20;100.00
5126;BME280;63008;53.112;8.896;2024-02-16T03:41:14;59294.97;;;-140.20;100.00
5126;BME280;63008;53.112;8.896;2024-02-16T03:43:16;59265.72;;;-140.20;100.00
5126;BME280;63008;53.112;8.896;2024-02-16T03:45:17;59288.72;;;-140.20;100.00
5126;BME280;63008;53.112;8.896;2024-02-16T03:47:18;59261.53;;;-140.20;100.00
5126;BME280;63008;53.112;8.896;2024-02-16T03:49:19;59263.63;;;-140.20;100.00
5126;BME280;63008;53.112;8.896;2024-02-16T03:51:21;59251.06;;;-140.20;100.00
5126;BME280;63008;53.112;8.896;2024-02-16T03:53:23;59292.88;;;-140.20;100.00
5126;BME280;63008;53.112;8.896;2024-02-16T03:55:24;59309.63;;;-140.20;100.00
5126;BME280;63008;53.112;8.896;2024-02-16T03:57:25;59292.88;;;-140.20;100.00
5126;BME280;63008;53.112;8.896;2024-02-16T03:59:26;59267.81;;;-140.20;100.00
5126;BME280;63008;53.112;8.896;2024-02-16T04:01:28;59290.81;;;-140.20;100.00
5126;BME280;63008;53.112;8.896;2024-02-16T04:03:29;59257.34;;;-140.20;100.00
5126;BME280;63008;53.112;8.896;2024-02-16T04:05:30;59294.97;;;-140.20;100.00
5126;BME280;63008;53.112;8.896;2024-02-16T04:07:34;59297.06;;;-140.20;100.00
5126;BME280;63008;53.112;8.896;2024-02-16T04:09:35;59240.63;;;-140.20;100.00
5126;BME280;63008;53.112;8.896;2024-02-16T04:11:36;59269.88;;;-140.20;100.00
5126;BME280;63008;53.112;8.896;2024-02-16T04:13:37;59244.81;;;-140.20;100.00
5126;BME280;63008;53.112;8.896;2024-02-16T04:15:38;59253.16;;;-140.20;100.00
5126;BME280;63008;53.112;8.896;2024-02-16T04:17:39;59282.44;;;-140.20;100.00
5126;BME280;63008;53.112;8.896;2024-02-16T04:19:40;59246.88;;;-140.20;100.00
5126;BME280;63008;53.112;8.896;2024-02-16T04:21:41;59261.53;;;-140.20;100.00
5126;BME280;63008;53.112;8.896;2024-02-16T04:23:42;59244.81;;;-140.20;100.00
5126;BME280;63008;53.112;8.896;2024-02-16T04:25:43;59267.81;;;-140.20;100.00
5126;BME280;63008;53.112;8.896;2024-02-16T04:27:44;59280.34;;;-140.20;100.00
5126;BME280;63008;53.112;8.896;2024-02-16T04:29:45;59288.72;;;-140.20;100.00
5126;BME280;63008;53.112;8.896;2024-02-16T04:31:46;59257.34;;;-140.20;100.00
5126;BME280;63008;53.112;8.896;2024-02-16T04:33:47;59261.53;;;-140.20;100.00
5126;BME280;63008;53.112;8.896;2024-02-16T04:35:48;59278.25;;;-140.20;100.00
5126;BME280;63008;53.112;8.896;2024-02-16T04:37:51;59221.81;;;-140.20;100.00
5126;BME280;63008;53.112;8.896;2024-02-16T04:39:52;59265.72;;;-140.20;100.00
5126;BME280;63008;53.112;8.896;2024-02-16T04:41:53;59271.97;;;-140.20;100.00
5126;BME280;63008;53.112;8.896;2024-02-16T04:43:54;59269.88;;;-140.20;100.00
5126;BME280;63008;53.112;8.896;2024-02-16T04:45:55;59280.34;;;-140.20;100.00
5126;BME280;63008;53.112;8.896;2024-02-16T04:47:56;59276.16;;;-140.20;100.00
5126;BME280;63008;53.112;8.896;2024-02-16T04:49:57;59261.53;;;-140.20;100.00
5126;BME280;63008;53.112;8.896;2024-02-16T04:51:58;59299.16;;;-140.20;100.00
5126;BME280;63008;53.112;8.896;2024-02-16T04:53:58;59288.72;;;-140.20;100.00
5126;BME280;63008;53.112;8.896;2024-02-16T04:55:59;59269.88;;;-140.20;100.00
5126;BME280;63008;53.112;8.896;2024-02-16T04:58:02;59271.97;;;-140.20;100.00
5126;BME280;63008;53.112;8.896;2024-02-16T05:00:10;59299.16;;;-140.20;100.00
5126;BME280;63008;53.112;8.896;2024-02-16T05:02:11;59294.97;;;-140.20;100.00
5126;BME280;63008;53.112;8.896;2024-02-16T05:04:13;59278.25;;;-140.20;100.00
5126;BME280;63008;53.112;8.896;2024-02-16T05:06:17;59257.34;;;-140.20;100.00
5126;BME280;63008;53.112;8.896;2024-02-16T05:08:21;59290.81;;;-140.20;100.00
5126;BME280;63008;53.112;8.896;2024-02-16T05:10:22;59248.97;;;-140.20;100.00
5126;BME280;63008;53.112;8.896;2024-02-16T05:12:24;59274.06;;;-140.20;100.00
5126;BME280;63008;53.112;8.896;2024-02-16T05:14:25;59294.97;;;-140.20;100.00
5126;BME280;63008;53.112;8.896;2024-02-16T05:16:27;59280.34;;;-140.20;100.00
5126;BME280;63008;53.112;8.896;2024-02-16T05:18:28;59263.63;;;-140.20;100.00
5126;BME280;63008;53.112;8.896;2024-02-16T05:20:29;59261.53;;;-140.20;100.00
5126;BME280;63008;53.112;8.896;2024-02-16T05:22:30;59261.53;;;-140.20;100.00
5126;BME280;63008;53.112;8.896;2024-02-16T05:24:31;59299.16;;;-140.20;100.00
5126;BME280;63008;53.112;8.896;2024-02-16T05:26:32;59219.72;;;-140.20;100.00
5126;BME280;63008;53.112;8.896;2024-02-16T05:28:33;59263.63;;;-140.20;100.00
5126;BME280;63008;53.112;8.896;2024-02-16T05:30:35;59297.06;;;-140.20;100.00
5126;BME280;63008;53.112;8.896;2024-02-16T05:32:36;59255.25;;;-140.20;100.00
5126;BME280;63008;53.112;8.896;2024-02-16T05:34:38;59280.34;;;-140.20;100.00
5126;BME280;63008;53.112;8.896;2024-02-16T05:36:39;59267.81;;;-140.20;100.00
5126;BME280;63008;53.112;8.896;2024-02-16T05:38:40;59301.25;;;-140.20;100.00
5126;BME280;63008;53.112;8.896;2024-02-16T05:40:44;59253.16;;;-140.20;100.00
5126;BME280;63008;53.112;8.896;2024-02-16T05:42:46;59255.25;;;-140.20;100.00
5126;BME280;63008;53.112;8.896;2024-02-16T05:44:48;59274.06;;;-140.20;100.00
5126;BME280;63008;53.112;8.896;2024-02-16T05:46:49;59303.34;;;-140.20;100.00
5126;BME280;63008;53.112;8.896;2024-02-16T05:48:50;59255.25;;;-140.20;100.00
5126;BME280;63008;53.112;8.896;2024-02-16T05:50:51;59253.16;;;-140.20;100.00
5126;BME280;63008;53.112;8.896;2024-02-16T05:52:52;59259.44;;;-140.20;100.00
5126;BME280;63008;53.112;8.896;2024-02-16T05:54:53;59265.72;;;-140.20;100.00
5126;BME280;63008;53.112;8.896;2024-02-16T05:56:54;59238.53;;;-140.20;100.00
5126;BME280;63008;53.112;8.896;2024-02-16T05:58:55;59261.53;;;-140.20;100.00
5126;BME280;63008;53.112;8.896;2024-02-16T06:00:56;59246.88;;;-140.20;100.00
5126;BME280;63008;53.112;8.896;2024-02-16T06:02:58;59280.34;;;-140.20;100.00
5126;BME280;63008;53.112;8.896;2024-02-16T06:05:00;59299.16;;;-140.20;100.00
5126;BME280;63008;53.112;8.896;2024-02-16T06:07:01;59257.34;;;-140.20;100.00
5126;BME280;63008;53.112;8.896;2024-02-16T06:09:02;59267.81;;;-140.20;100.00
5126;BME280;63008;53.112;8.896;2024-02-16T06:11:07;59261.53;;;-140.20;100.00
5126;BME280;63008;53.112;8.896;2024-02-16T06:13:08;59248.97;;;-140.20;100.00
5126;BME280;63008;53.112;8.896;2024-02-16T06:15:09;59257.34;;;-140.20;100.00
5126;BME280;63008;53.112;8.896;2024-02-16T06:17:10;59244.81;;;-140.20;100.00
5126;BME280;63008;53.112;8.896;2024-02-16T06:19:11;59278.25;;;-140.20;100.00
5126;BME280;63008;53.112;8.896;2024-02-16T06:21:12;59271.97;;;-140.20;100.00
5126;BME280;63008;53.112;8.896;2024-02-16T06:23:13;59307.53;;;-140.20;100.00
5126;BME280;63008;53.112;8.896;2024-02-16T06:25:17;59278.25;;;-140.20;100.00
5126;BME280;63008;53.112;8.896;2024-02-16T06:27:19;59282.44;;;-140.20;100.00
5126;BME280;63008;53.112;8.896;2024-02-16T06:29:20;59253.16;;;-140.20;100.00
5126;BME280;63008;53.112;8.896;2024-02-16T06:31:21;59240.63;;;-140.20;100.00
5126;BME280;63008;53.112;8.896;2024-02-16T06:33:22;59259.44;;;-140.20;100.00
5126;BME280;63008;53.112;8.896;2024-02-16T06:35:23;59276.16;;;-140.20;100.00
5126;BME280;63008;53.112;8.896;2024-02-16T06:37:24;59251.06;;;-140.20;100.00
5126;BME280;63008;53.112;8.896;2024-02-16T06:39:25;59274.06;;;-140.20;100.00
5126;BME280;63008;53.112;8.896;2024-02-16T06:41:26;59284.53;;;-140.20;100.00
5126;BME280;63008;53.112;8.896;2024-02-16T06:43:27;59269.88;;;-140.20;100.00
5126;BME280;63008;53.112;8.896;2024-02-16T06:45:28;59255.25;;;-140.20;100.00
5126;BME280;63008;53.112;8.896;2024-02-16T06:47:31;59259.44;;;-140.20;100.00
5126;BME280;63008;53.112;8.896;2024-02-16T06:49:32;59244.81;;;-140.20;100.00
5126;BME280;63008;53.112;8.896;2024-02-16T06:51:33;59267.81;;;-140.20;100.00
5126;BME280;63008;53.112;8.896;2024-02-16T06:53:34;59253.16;;;-140.20;100.00
5126;BME280;63008;53.112;8.896;2024-02-16T06:55:35;59265.72;;;-140.20;100.00
5126;BME280;63008;53.112;8.896;2024-02-16T06:57:36;59267.81;;;-140.20;100.00
5126;BME280;63008;53.112;8.896;2024-02-16T06:59:37;59290.81;;;-140.20;100.00
5126;BME280;63008;53.112;8.896;2024-02-16T07:01:38;59307.53;;;-140.20;100.00
5126;BME280;63008;53.112;8.896;2024-02-16T07:03:39;59257.34;;;-140.20;100.00
5126;BME280;63008;53.112;8.896;2024-02-16T07:05:40;59265.72;;;-140.20;100.00
5126;BME280;63008;53.112;8.896;2024-02-16T07:07:41;59278.25;;;-140.20;100.00
5126;BME280;63008;53.112;8.896;2024-02-16T07:09:42;59253.16;;;-140.20;100.00
5126;BME280;63008;53.112;8.896;2024-02-16T07:11:43;59234.34;;;-140.20;100.00
5126;BME280;63008;53.112;8.896;2024-02-16T07:13:47;59299.16;;;-140.20;100.00
5126;BME280;63008;53.112;8.896;2024-02-16T07:15:47;59267.81;;;-140.20;100.00
5126;BME280;63008;53.112;8.896;2024-02-16T07:17:48;59253.16;;;-140.20;100.00
5126;BME280;63008;53.112;8.896;2024-02-16T07:19:49;59265.72;;;-140.20;100.00
5126;BME280;63008;53.112;8.896;2024-02-16T07:21:50;59269.88;;;-140.20;100.00
5126;BME280;63008;53.112;8.896;2024-02-16T07:23:53;59267.81;;;-140.20;100.00
5126;BME280;63008;53.112;8.896;2024-02-16T07:25:55;59278.25;;;-140.20;100.00
5126;BME280;63008;53.112;8.896;2024-02-16T07:27:57;59290.81;;;-140.20;100.00
5126;BME280;63008;53.112;8.896;2024-02-16T07:29:58;59261.53;;;-140.20;100.00
5126;BME280;63008;53.112;8.896;2024-02-16T07:31:59;59259.44;;;-140.20;100.00
5126;BME280;63008;53.112;8.896;2024-02-16T07:34:01;59292.88;;;-140.20;100.00
5126;BME280;63008;53.112;8.896;2024-02-16T07:36:03;59265.72;;;-140.20;100.00
5126;BME280;63008;53.112;8.896;2024-02-16T07:38:04;59292.88;;;-140.20;100.00
5126;BME280;63008;53.112;8.896;2024-02-16T07:40:06;59248.97;;;-140.20;100.00
5126;BME280;63008;53.112;8.896;2024-02-16T07:42:09;59294.97;;;-140.20;100.00
5126;BME280;63008;53.112;8.896;2024-02-16T07:44:11;59265.72;;;-140.20;100.00
5126;BME280;63008;53.112;8.896;2024-02-16T07:46:12;59246.88;;;-140.20;100.00
5126;BME280;63008;53.112;8.896;2024-02-16T07:48:13;59232.25;;;-140.20;100.00
5126;BME280;63008;53.112;8.896;2024-02-16T07:50:18;59286.63;;;-140.20;100.00
5126;BME280;63008;53.112;8.896;2024-02-16T07:52:20;59240.63;;;-140.20;100.00
5126;BME280;63008;53.112;8.896;2024-02-16T07:54:22;59309.63;;;-140.20;100.00
5126;BME280;63008;53.112;8.896;2024-02-16T07:56:22;59238.53;;;-140.20;100.00
5126;BME280;63008;53.112;8.896;2024-02-16T07:58:23;59244.81;;;-140.20;100.00
5126;BME280;63008;53.112;8.896;2024-02-16T08:00:25;59232.25;;;-140.20;100.00
5126;BME280;63008;53.112;8.896;2024-02-16T08:02:26;59230.16;;;-140.20;100.00
5126;BME280;63008;53.112;8.896;2024-02-16T08:04:27;59251.06;;;-140.20;100.00
5126;BME280;63008;53.112;8.896;2024-02-16T08:06:28;59248.97;;;-140.20;100.00
5126;BME280;63008;53.112;8.896;2024-02-16T08:08:29;59309.63;;;-140.20;100.00
5126;BME280;63008;53.112;8.896;2024-02-16T08:10:30;59232.25;;;-140.20;100.00
5126;BME280;63008;53.112;8.896;2024-02-16T08:12:31;59248.97;;;-140.20;100.00
5126;BME280;63008;53.112;8.896;2024-02-16T08:14:33;59261.53;;;-140.20;100.00
5126;BME280;63008;53.112;8.896;2024-02-16T08:16:34;59278.25;;;-140.20;100.00
5126;BME280;63008;53.112;8.896;2024-02-16T08:18:35;59269.88;;;-140.20;100.00
5126;BME280;63008;53.112;8.896;2024-02-16T08:20:36;59259.44;;;-140.20;100.00
5126;BME280;63008;53.112;8.896;2024-02-16T08:22:37;59234.34;;;-140.20;100.00
5126;BME280;63008;53.112;8.896;2024-02-16T08:24:38;59244.81;;;-140.20;100.00
5126;BME280;63008;53.112;8.896;2024-02-16T08:26:40;59236.44;;;-140.20;100.00
5126;BME280;63008;53.112;8.896;2024-02-16T08:28:43;59255.25;;;-140.20;100.00
5126;BME280;63008;53.112;8.896;2024-02-16T08:30:44;59232.25;;;-140.20;100.00
5126;BME280;63008;53.112;8.896;2024-02-16T08:32:46;59263.63;;;-140.20;100.00
5126;BME280;63008;53.112;8.896;2024-02-16T08:34:47;59248.97;;;-140.20;100.00
5126;BME280;63008;53.112;8.896;2024-02-16T08:36:49;59278.25;;;-140.20;98.58
5126;BME280;63008;53.112;8.896;2024-02-16T08:38:51;59232.25;;;-140.20;99.41
5126;BME280;63008;53.112;8.896;2024-02-16T08:40:52;59228.06;;;-140.20;99.19
5126;BME280;63008;53.112;8.896;2024-02-16T08:42:53;59219.72;;;-140.20;98.25
5126;BME280;63008;53.112;8.896;2024-02-16T08:44:54;59284.53;;;-140.20;99.14
5126;BME280;63008;53.112;8.896;2024-02-16T08:46:55;59274.06;;;-140.20;98.88
5126;BME280;63008;53.112;8.896;2024-02-16T08:48:56;59198.81;;;-140.20;97.62
5126;BME280;63008;53.112;8.896;2024-02-16T08:50:57;59228.06;;;-140.20;97.62
5126;BME280;63008;53.112;8.896;2024-02-16T08:52:58;59230.16;;;-140.20;97.49
5126;BME280;63008;53.112;8.896;2024-02-16T08:54:59;59211.34;;;-140.20;97.02
5126;BME280;63008;53.112;8.896;2024-02-16T08:57:00;59240.63;;;-140.20;96.79
5126;BME280;63008;53.112;8.896;2024-02-16T08:59:01;59246.88;;;-140.20;96.09
5126;BME280;63008;53.112;8.896;2024-02-16T09:01:02;59198.81;;;-140.20;96.39
5126;BME280;63008;53.112;8.896;2024-02-16T09:03:04;59253.16;;;-140.20;95.78
5126;BME280;63008;53.112;8.896;2024-02-16T09:05:07;59228.06;;;-140.20;95.52
5126;BME280;63008;53.112;8.896;2024-02-16T09:07:10;59215.53;;;-140.20;95.10
5126;BME280;63008;53.112;8.896;2024-02-16T09:09:11;59209.25;;;-140.20;93.91
5126;BME280;63008;53.112;8.896;2024-02-16T09:11:12;59274.06;;;-140.20;94.12
5126;BME280;63008;53.112;8.896;2024-02-16T09:13:15;59215.53;;;-140.20;92.71
5126;BME280;63008;53.112;8.896;2024-02-16T09:15:16;59215.53;;;-140.20;92.87
5126;BME280;63008;53.112;8.896;2024-02-16T09:17:17;59211.34;;;-140.20;92.73
5126;BME280;63008;53.112;8.896;2024-02-16T09:19:20;59228.06;;;-140.20;93.17
5126;BME280;63008;53.112;8.896;2024-02-16T09:21:21;59248.97;;;-140.20;92.20
5126;BME280;63008;53.112;8.896;2024-02-16T09:23:24;59240.63;;;-140.20;92.48
5126;BME280;63008;53.112;8.896;2024-02-16T09:25:25;59253.16;;;-140.20;91.99
5126;BME280;63008;53.112;8.896;2024-02-16T09:27:26;59209.25;;;-140.20;92.09
5126;BME280;63008;53.112;8.896;2024-02-16T09:29:27;59215.53;;;-140.20;92.47
5126;BME280;63008;53.112;8.896;2024-02-16T09:31:29;59232.25;;;-140.20;92.29
5126;BME280;63008;53.112;8.896;2024-02-16T09:33:30;59236.44;;;-140.20;91.50
5126;BME280;63008;53.112;8.896;2024-02-16T09:35:31;59248.97;;;-140.20;91.19
5126;BME280;63008;53.112;8.896;2024-02-16T09:37:32;59209.25;;;-140.20;91.23
5126;BME280;63008;53.112;8.896;2024-02-16T09:39:33;59202.97;;;-140.20;90.87
5126;BME280;63008;53.112;8.896;2024-02-16T09:41:35;59240.63;;;-140.20;91.00
5126;BME280;63008;53.112;8.896;2024-02-16T09:43:37;59205.06;;;-140.20;90.95
5126;BME280;63008;53.112;8.896;2024-02-16T09:45:40;59213.44;;;-140.20;90.82
5126;BME280;63008;53.112;8.896;2024-02-16T09:47:43;59171.63;;;-140.20;90.68
5126;BME280;63008;53.112;8.896;2024-02-16T09:49:44;59198.81;;;-140.20;90.85
5126;BME280;63008;53.112;8.896;2024-02-16T09:51:45;59238.53;;;-140.20;90.88
5126;BME280;63008;53.112;8.896;2024-02-16T09:53:50;59184.16;;;-140.20;90.76
5126;BME280;63008;53.112;8.896;2024-02-16T09:55:55;59253.16;;;-140.20;91.35
5126;BME280;63008;53.112;8.896;2024-02-16T09:58:00;59242.72;;;-140.20;91.35
5126;BME280;63008;53.112;8.896;2024-02-16T10:00:02;59217.63;;;-140.20;91.20
5126;BME280;63008;53.112;8.896;2024-02-16T10:02:05;59244.81;;;-140.20;90.89
5126;BME280;63008;53.112;8.896;2024-02-16T10:04:08;59228.06;;;-140.20;91.37
5126;BME280;63008;53.112;8.896;2024-02-16T10:06:12;59207.16;;;-140.20;91.50
5126;BME280;63008;53.112;8.896;2024-02-16T10:08:14;59238.53;;;-140.20;91.71
5126;BME280;63008;53.112;8.896;2024-02-16T10:10:25;59240.63;;;-140.20;90.35
5126;BME280;63008;53.112;8.896;2024-02-16T10:12:26;59202.97;;;-140.20;90.23
5126;BME280;63008;53.112;8.896;2024-02-16T10:14:29;59221.81;;;-140.20;90.55
5126;BME280;63008;53.112;8.896;2024-02-16T10:16:32;59207.16;;;-140.20;91.12
5126;BME280;63008;53.112;8.896;2024-02-16T10:18:33;59198.81;;;-140.20;89.87
5126;BME280;63008;53.112;8.896;2024-02-16T10:20:35;59246.88;;;-140.20;90.01
5126;BME280;63008;53.112;8.896;2024-02-16T10:22:38;59205.06;;;-140.20;89.64
5126;BME280;63008;53.112;8.896;2024-02-16T10:24:40;59223.88;;;-140.20;89.98
5126;BME280;63008;53.112;8.896;2024-02-16T10:26:44;59240.63;;;-140.20;90.36
5126;BME280;63008;53.112;8.896;2024-02-16T10:28:45;59234.34;;;-140.20;90.22